Memphis, TN

9:26 AM CDT on August 03, 2015 (GMT -0500)
Midtown Memphis (OEM) | | Change Station
CLOSE
Current Station
Personal Weather Station
Location: Memphis, TN
Elevation: 320 ft
Nearby Weather Stations

Elev 320 ft 35.13 °N, 89.97 °W | Updated 1 minute ago

Partly Cloudy
Partly Cloudy
90.1 °F
Feels Like 99 °F
N
0.0
Wind Variable Wind from SW
Gusts 9.0 mph

Today
High -- | Low -- °F
--% Chance of Precip.
Yesterday
High -- | Low -- °F
Precip. -- in
6:10 AM 8:01 PM
Waning Gibbous, 86% visible
Pressure 29.94 in
Visibility 10.0 miles
Clouds Few 25000 ft
Heat Index 99 °F
Dew Point 73 °F
Humidity 58%
Rainfall 0.00 in
Snow Depth Not available.
UV 3 out of 12
Pollen 6.80 out of 12
Air Quality Not available.
Flu Activity Not available.
METAR KMEM 031354Z 00000KT 10SM FEW250 30/21 A2995 RMK AO2 SLP137 T03000211

More Conditions Fewer Conditions

Pressure 29.94 in
Visibility 10.0 miles
Clouds Few 25000 ft
Heat Index 99 °F
Dew Point 73 °F
Humidity 58%
Rainfall 0.00 in
Snow Depth Not available.
UV 3 out of 12
Pollen 6.80 out of 12
Air Quality Not available.
Flu Activity Not available.
METAR KMEM 031354Z 00000KT 10SM FEW250 30/21 A2995 RMK AO2 SLP137 T03000211

More Conditions Fewer Conditions

10-Day Weather Forecast

×

Almanac

Astronomy

Aug. 03, 2015 Rise Set
Actual Time
Civil Twilight
Nautical Twilight
Astronomical Twilight
Moon
Length of Visible Light
Length of Day
Tomorrow will be .
, % of the Moon is Illuminated

Today's Extremes

State Highs State Lows

Community

WunderPhotos

Upload Photos

1,843,638 photos uploaded!

WunderBlogs® & News

Nearby

Air Quality

  Air Quality AQ Index Pollutant
Not available.

Snow Depth

Station Depth Elevation

Earthquake Activity

City Distance Mag. Time & Date
Minimum magnitude displayed is 2.5.

Coastal Water Temperatures

Place Temperature

Stations

Nearby Weather Stations

Station Location Temp. Windchill Dew Point Humidity Wind Precip. Elev Updated Type